createdAt,value
2019-05-30T00:03:51.322Z,1.38
2019-05-30T00:08:59.016Z,1.60
2019-05-30T00:14:06.788Z,1.62
2019-05-30T00:19:14.824Z,1.41
2019-05-30T00:24:22.522Z,1.63
2019-05-30T00:29:30.157Z,1.63
2019-05-30T00:34:37.977Z,1.57
2019-05-30T00:39:45.788Z,1.42
2019-05-30T00:44:55.844Z,1.46
2019-05-30T00:49:54.282Z,1.52
2019-05-30T00:55:05.078Z,1.49
2019-05-30T01:00:03.054Z,1.37
2019-05-30T01:05:10.645Z,1.70
2019-05-30T01:10:18.320Z,1.67
2019-05-30T01:15:27.417Z,1.36
2019-05-30T01:20:35.064Z,1.57
2019-05-30T01:25:42.835Z,1.55
2019-05-30T01:30:59.676Z,1.55
2019-05-30T01:35:57.880Z,1.62
2019-05-30T01:41:05.932Z,1.44
2019-05-30T01:46:12.971Z,1.42
2019-05-30T01:51:20.673Z,1.81
2019-05-30T01:56:28.301Z,1.57
2019-05-30T02:01:36.133Z,1.58
2019-05-30T02:06:44.701Z,2.00
2019-05-30T02:11:52.505Z,1.36
2019-05-30T02:17:01.509Z,1.69
2019-05-30T02:22:09.763Z,1.71
2019-05-30T02:27:15.879Z,1.48
2019-05-30T02:32:23.604Z,1.69
2019-05-30T02:37:31.313Z,1.54
2019-05-30T02:42:39.346Z,1.54
2019-05-30T02:47:49.281Z,1.57
2019-05-30T02:52:56.981Z,1.48
2019-05-30T02:58:06.206Z,1.46
2019-05-30T03:03:14.498Z,1.60
2019-05-30T03:08:20.766Z,1.69
2019-05-30T03:13:28.738Z,1.59
2019-05-30T03:18:36.418Z,1.88
2019-05-30T03:23:44.265Z,1.95
2019-05-30T03:28:53.519Z,1.75
2019-05-30T03:33:59.207Z,1.83
2019-05-30T03:39:07.711Z,1.90
2019-05-30T03:44:15.681Z,1.92
2019-05-30T03:49:22.131Z,2.06
2019-05-30T03:54:29.944Z,2.24
2019-05-30T03:59:37.640Z,2.11
2019-05-30T04:04:45.678Z,2.38
2019-05-30T04:09:53.494Z,2.78
2019-05-30T04:15:01.278Z,2.66
2019-05-30T04:20:09.836Z,2.63
2019-05-30T04:25:16.778Z,2.94
2019-05-30T04:30:23.753Z,2.81
2019-05-30T04:35:31.435Z,2.68
2019-05-30T04:40:39.137Z,2.80
2019-05-30T04:45:46.928Z,2.77
2019-05-30T04:50:54.789Z,3.00
2019-05-30T04:56:02.535Z,3.10
2019-05-30T05:01:11.005Z,2.79
2019-05-30T05:06:17.932Z,2.89
2019-05-30T05:11:25.505Z,3.02
2019-05-30T05:16:36.076Z,3.21
2019-05-30T05:21:39.396Z,3.34
2019-05-30T05:26:47.428Z,3.70
2019-05-30T05:31:55.138Z,3.53
2019-05-30T05:37:03.010Z,3.80
2019-05-30T05:42:10.589Z,3.79
2019-05-30T05:47:21.124Z,3.92
2019-05-30T05:52:18.892Z,3.74
2019-05-30T05:57:26.636Z,4.08
2019-05-30T06:02:34.265Z,3.85
2019-05-30T06:07:41.926Z,4.47
2019-05-30T06:12:49.612Z,4.63
2019-05-30T06:17:57.276Z,4.45
2019-05-30T06:23:05.017Z,5.02
2019-05-30T06:28:12.763Z,5.29
2019-05-30T06:33:20.765Z,5.45
2019-05-30T06:38:29.506Z,5.70
2019-05-30T06:43:35.636Z,6.48
2019-05-30T06:48:43.345Z,6.39
2019-05-30T06:53:51.176Z,6.83
2019-05-30T06:58:59.012Z,6.73
2019-05-30T07:04:07.395Z,6.99
2019-05-30T07:09:14.749Z,7.33
2019-05-30T07:14:23.070Z,7.03
2019-05-30T07:19:29.953Z,7.67
2019-05-30T07:24:38.615Z,7.82
2019-05-30T07:29:46.477Z,7.62
2019-05-30T07:35:06.019Z,7.82
2019-05-30T07:40:01.589Z,8.16
2019-05-30T07:45:09.234Z,7.56
2019-05-30T07:50:17.740Z,7.70
2019-05-30T07:55:25.382Z,6.87
2019-05-30T08:00:33.576Z,7.82
2019-05-30T08:05:40.493Z,7.56
2019-05-30T08:10:48.289Z,7.60
2019-05-30T08:15:56.016Z,6.98
2019-05-30T08:21:03.706Z,7.15
2019-05-30T08:26:11.540Z,7.18
2019-05-30T08:31:19.288Z,6.62
2019-05-30T08:36:26.998Z,6.77
2019-05-30T08:41:35.301Z,7.19
2019-05-30T08:46:42.206Z,7.39
2019-05-30T08:51:50.049Z,6.92
2019-05-30T08:56:57.665Z,7.19
2019-05-30T09:02:05.628Z,6.97
2019-05-30T09:07:13.225Z,6.93
2019-05-30T09:12:22.051Z,6.62
2019-05-30T09:17:29.707Z,7.26
2019-05-30T09:22:39.408Z,6.85
2019-05-30T09:27:45.312Z,6.88
2019-05-30T09:32:52.196Z,6.82
2019-05-30T09:37:59.849Z,6.91
2019-05-30T09:43:07.685Z,6.59
2019-05-30T09:48:15.348Z,6.19
2019-05-30T09:53:23.121Z,6.44
2019-05-30T09:58:30.842Z,6.50
2019-05-30T10:03:38.586Z,6.42
2019-05-30T10:08:47.731Z,6.41
2019-05-30T10:13:53.514Z,6.87
2019-05-30T10:19:01.158Z,6.54
2019-05-30T10:24:09.034Z,6.48
2019-05-30T10:29:16.774Z,6.83
2019-05-30T10:34:24.478Z,7.29
2019-05-30T10:39:32.240Z,7.14
2019-05-30T10:44:40.014Z,6.59
2019-05-30T10:49:48.552Z,7.13
2019-05-30T10:54:55.643Z,6.48
2019-05-30T11:00:03.261Z,6.70
2019-05-30T11:05:11.276Z,6.47
2019-05-30T11:10:18.913Z,6.47
2019-05-30T11:15:26.725Z,6.49
2019-05-30T11:20:34.373Z,6.27
2019-05-30T11:25:42.954Z,6.64
2019-05-30T11:30:50.729Z,6.59
2019-05-30T11:35:59.269Z,7.06
2019-05-30T11:41:05.825Z,6.80
2019-05-30T11:46:13.565Z,6.78
2019-05-30T11:51:22.274Z,6.88
2019-05-30T11:56:29.875Z,6.68
2019-05-30T12:01:37.657Z,6.90
2019-05-30T12:06:45.317Z,6.89
2019-05-30T12:11:53.493Z,7.85
2019-05-30T12:17:01.593Z,6.95
2019-05-30T12:22:08.724Z,7.21
2019-05-30T12:27:16.269Z,7.16
2019-05-30T12:32:24.069Z,8.51
2019-05-30T12:37:31.743Z,6.99
2019-05-30T12:42:39.450Z,7.71
2019-05-30T12:47:47.208Z,7.79
2019-05-30T12:52:55.508Z,7.56
2019-05-30T12:58:02.873Z,7.77
2019-05-30T13:03:09.832Z,7.21
2019-05-30T13:08:21.689Z,7.27
2019-05-30T13:13:25.031Z,7.21
2019-05-30T13:18:33.674Z,7.40
2019-05-30T13:23:41.550Z,7.52
2019-05-30T13:28:49.154Z,8.12
2019-05-30T13:33:57.110Z,8.51
2019-05-30T13:39:05.268Z,7.70
2019-05-30T13:44:13.745Z,8.11
2019-05-30T13:49:21.425Z,8.35
2019-05-30T13:54:29.153Z,8.30
2019-05-30T13:59:36.885Z,8.11
2019-05-30T14:04:44.658Z,8.23
2019-05-30T14:09:55.438Z,9.47
2019-05-30T14:14:53.167Z,8.33
2019-05-30T14:20:00.919Z,8.03
2019-05-30T14:25:09.658Z,8.65
2019-05-30T14:30:16.003Z,8.20
2019-05-30T14:35:23.769Z,8.49
2019-05-30T14:40:31.447Z,7.87
2019-05-30T14:45:39.270Z,6.38
2019-05-30T14:50:46.889Z,7.29
2019-05-30T14:55:54.753Z,7.31
2019-05-30T15:01:02.401Z,7.03
2019-05-30T15:06:12.885Z,7.22
2019-05-30T15:11:17.271Z,6.87
2019-05-30T15:16:25.010Z,6.68
2019-05-30T15:21:32.764Z,6.91
2019-05-30T15:26:40.614Z,6.57
2019-05-30T15:31:48.209Z,7.36
2019-05-30T15:36:55.948Z,7.74
2019-05-30T15:42:03.545Z,7.55
2019-05-30T15:47:12.116Z,8.06
2019-05-30T15:52:19.713Z,7.48
2019-05-30T15:57:27.377Z,7.82
2019-05-30T16:02:35.105Z,7.40
2019-05-30T16:07:42.908Z,7.09
2019-05-30T16:12:50.749Z,7.17
2019-05-30T16:17:58.391Z,7.23
2019-05-30T16:23:06.224Z,7.30
2019-05-30T16:28:14.060Z,7.43
2019-05-30T16:33:22.174Z,7.86
2019-05-30T16:38:29.733Z,7.62
2019-05-30T16:43:38.350Z,7.41
2019-05-30T16:48:46.140Z,7.85
2019-05-30T16:53:53.833Z,7.85
2019-05-30T16:59:01.581Z,7.90
2019-05-30T17:04:09.625Z,8.24
2019-05-30T17:09:17.429Z,8.29
2019-05-30T17:14:26.007Z,8.40
2019-05-30T17:19:33.987Z,9.08
2019-05-30T17:24:41.752Z,7.97
2019-05-30T17:29:49.431Z,8.20
2019-05-30T17:34:57.046Z,7.78
2019-05-30T17:40:04.734Z,8.99
2019-05-30T17:45:12.477Z,7.84
2019-05-30T17:50:21.659Z,7.85
2019-05-30T17:55:28.024Z,8.97
2019-05-30T18:00:35.393Z,9.15
2019-05-30T18:05:43.055Z,9.14
2019-05-30T18:10:53.607Z,8.63
2019-05-30T18:15:58.205Z,8.18
2019-05-30T18:21:06.049Z,8.55
2019-05-30T18:26:13.665Z,8.18
2019-05-30T18:31:21.880Z,8.22
2019-05-30T18:36:30.518Z,8.92
2019-05-30T18:41:39.851Z,8.57
2019-05-30T18:46:38.642Z,8.51
2019-05-30T18:51:44.718Z,8.65
2019-05-30T18:56:52.556Z,8.81
2019-05-30T19:02:00.272Z,8.69
2019-05-30T19:07:07.960Z,8.90
2019-05-30T19:12:15.529Z,8.58
2019-05-30T19:17:23.191Z,8.15
2019-05-30T19:22:32.103Z,7.84
2019-05-30T19:27:38.605Z,8.37
2019-05-30T19:32:45.326Z,8.51
2019-05-30T19:37:52.971Z,8.50
2019-05-30T19:43:01.497Z,8.83
2019-05-30T19:48:10.048Z,9.98
2019-05-30T19:53:17.724Z,9.25
2019-05-30T19:58:25.393Z,10.20
2019-05-30T20:03:36.484Z,10.98
2019-05-30T20:09:23.130Z,11.78
2019-05-30T20:14:31.026Z,11.49
2019-05-30T20:19:39.886Z,11.59
2019-05-30T20:24:45.900Z,11.55
2019-05-30T20:29:53.598Z,10.99
2019-05-30T20:35:01.326Z,11.73
2019-05-30T20:40:09.205Z,11.85
2019-05-30T20:45:17.006Z,12.24
2019-05-30T20:50:24.683Z,11.91
2019-05-30T20:55:32.615Z,12.80
2019-05-30T21:00:40.521Z,12.78
2019-05-30T21:05:47.527Z,12.78
2019-05-30T21:10:55.218Z,12.27
2019-05-30T21:16:02.918Z,13.52
2019-05-30T21:21:10.656Z,13.04
2019-05-30T21:26:18.391Z,13.34
2019-05-30T21:31:26.030Z,13.32
2019-05-30T21:36:33.674Z,13.20
2019-05-30T21:41:42.238Z,13.40
2019-05-30T21:46:49.077Z,13.35
2019-05-30T21:51:56.150Z,14.96
2019-05-30T21:57:04.733Z,14.71
2019-05-30T22:02:12.389Z,14.60
2019-05-30T22:07:20.153Z,15.01
2019-05-30T22:12:27.840Z,13.98
2019-05-30T22:17:35.594Z,14.66
2019-05-30T22:22:43.890Z,15.01
2019-05-30T22:27:50.656Z,15.58
2019-05-30T22:32:58.306Z,15.35
2019-05-30T22:38:05.973Z,15.88
2019-05-30T22:43:24.864Z,16.39
2019-05-30T22:48:20.863Z,16.48
2019-05-30T22:53:28.521Z,16.12
2019-05-30T22:58:36.193Z,16.22
2019-05-30T23:03:44.961Z,16.85
2019-05-30T23:08:50.926Z,17.21
2019-05-30T23:13:58.533Z,16.72
2019-05-30T23:19:06.208Z,17.36
2019-05-30T23:24:13.993Z,18.11
2019-05-30T23:29:21.986Z,17.53
2019-05-30T23:34:29.657Z,17.29
2019-05-30T23:39:37.298Z,17.13
2019-05-30T23:44:45.007Z,16.99
2019-05-30T23:49:53.828Z,16.57
2019-05-30T23:55:02.313Z,15.57
